Timeline UpdatesTrip UpdatesNews PostsPvt PostsTravel TipsAdmin PostsConv PostsFollowed PostsChat RequestsBlog PostsPNR Posts

Disclaimer
Search
 
 
Wed Aug 20, 2014 16:11:26 ISTHomeTrainsΣChainsAtlasPNRForumGalleryNewsFAQTripsMembersLoginFeedback
No Recent News for this Train
Other Trains in the News **new
Latest...
Additional stoppage on Masudan MSDN) from 09/09/13 on wards at 2.12 to 2.13 am, on regular basis.
Sat Sep 07, 2013 (12:06PM)
⇐ Return Journey: Train# 53044

53043/Howrah-Rajgir Passenger (UnReserved)

Nov 04 2013 (6:56AM)
Change Departure Station:
Change Arrival Station:
Post a Train Travel TipPost a Train Travel Tip **new
Post a Comment/Question/Picture/VideoPost a Comment/Question/Picture/Video
Pantry/Catering
✕ NO Pantry Car
✕ NO Catering
RSA - Rake Sharing
Rake/Coach Composition
Loco
HWH WDM 3A/3D
News    PNR    Forum    Time-Table    Availability    Fare Chart    Map    Arr/Dep History    Trips    Gallery    ΣChains    X/O    Timeline    
Travel Time: 23h 45m    79 halts    Distance: 657 km    Avg Speed: 27 km/hr
Type: Passenger
Zone: ER/Eastern
Departs @ 11:10 (Avg 16m late)
Platform# 10
SMTWTFS
Kolkata Howrah Junction/HWH 
Arrives @ 10:55 +1 night (Avg 2h 13m late)
Platform# ???
SMTWTFS
Rajgir/RGD 

79 halts. 159 intermediate Stations between Kolkata Howrah Junction and Rajgir

Show ALL intermediate Stations  Show Old Time-Table

#CodeStation NameX/OArrivesAvgDepartsAvgHaltPFDay#KmSpeedElevZoneAddress
1HWH»Kolkata Howrah Junction (23)»  -11:10+161010.04510mERHowrah 711101, West Bengal
2SRPSerampore (4)X  11:36+3711:39+373m--119.73811mERdist - hooghly, West Bengal
3SHESeoraphuli Junction (6)  11:43+3711:45+382m--122.27113mERBaidyabati, West Bengal
4CGRChandan Nagar (3)X  11:54+3911:57+403m--132.86016mERDist -HOOGHLY - 712136, West Bengal
5CNSChuchura (3)X  12:00+2312:01+181m--135.82515mERDist - HOOGHLY - 712102, West Bengal
6BDCBandel Junction (7)X  12:10+3812:14+394m--139.67514mERdist - HOOGHLY, West Bengal
7PDAPundooah (3)  12:31+4512:32+461m--160.87418mERPandua, West Bengal
8MYMMemari (4)  12:49+5012:50+501m--181.85825mERMemari, West Bengal
9BWNBarddhaman Junction (8)X  13:16+4013:21+445m--1106.84934mERDist - Barddhaman, West Bengal
10KANKhana Junction (5)X  13:37+1:0613:38+1:061m11119.95142mERDist - Bardhaman, West Bengal
11JTLJhapater Dhal (4)  13:45+1:0713:46+1:101m--1125.83836mERDist - Bardhaman, West Bengal
12BPSBanpas (3)  13:52+1:1413:53+1:151m--1129.63746mERDist - Bardhaman, West Bengal
13NRXNoadar Dhal (2)  13:59+1:1814:00+1:221m--1133.35546mERdist - bardhaman, West Bengal
14GKHGuskara (2)  14:07+1:2014:12+1:175m21139.77441mERDist - Bardhaman, West Bengal
15PCQPichkurirdhal (3)X  14:17+1:1814:18+1:211m--1145.95738mERDist - Bardhaman, West Bengal
16BDHBhedia (2)X  14:23+1:2214:24+1:231m--1150.65341mERDist - Bardhaman, West Bengal
17BHPBolpur Shantiniketan (3)  14:33+1:0614:36+1:053m--1158.64259mERBolpur, West Bengal
18PNEPrantik (3)  14:42+1:2514:43+1:271m--1162.94748mERPrantik, West Bengal
19KPLEKopai (2)X  14:52+1:2914:53+1:351m--1169.96148mERDist - Birbhum, West Bengal
20AMPAhmadpur Junction (3)X  15:01+1:3515:02+1:361m--1178.15646mERDist - Birbhum, West Bengal
21BSLEBataspur (2)  15:08+1:4015:09+1:481m--1183.75154mERDist - Birbhum, West Bengal
22SNTSainthia Junction (4)X  15:18+1:4515:20+1:492m31191.38758mERDist - Birbhum, West Bengal
23GHLEGadadharpur (3)X  15:25+1:5815:26+1:591m11198.67152mERDist - Birbhum, West Bengal
24MLVMallarpur (3)  15:33+2:0115:34+2:021m--1206.95246mERDist - Birbhum, West Bengal
25TPFTarapith Road (2)X  15:40+2:0015:41+2:001m--1212.12245mERDist - Birbhum, West Bengal
26RPHRampurhat (3)  16:01+1:4916:08+1:517m--1219.35041mERDIST - Birbhum, West Bengal
27NHTNalhati Junction (4)X  16:25+2:0916:27+2:112m31233.48648mERNalhati, West Bengal
28CTRChatra (3)  16:33+2:1416:34+2:141m--1242.06542mERChatra, West Bengal
29MRRMurarai (3)  16:41+2:2016:42+2:231m--1249.61336mERMurarai, West Bengal
30BSBRBanshlai Bridge (2)XO  17:05+2:1817:06+2:181m--1254.61035mERState Highway 5, West Bengal
31RJGRajgram (3)  17:46+1:4217:48+1:412m31261.35232mERRajgram, West Bengal
32NGFNagarnabi (3)O  17:54+1:4217:56+1:452m31266.54630mERState Highway 5, Jharkhand
33PKRPakur (2)  18:03+1:4018:07+1:394m11271.95137mERDist:- Pakur, Jharkhand
34TBBTilbhita (3)  18:12+1:4918:13+1:521m--1276.14531mERTilbhita, Jharkhand
35KLPKotalpukur (3)X  18:23+1:5118:24+1:531m--1283.72240mERKotalpukur, Jharkhand
36GMANGumani (3)  18:42+1:4618:43+1:471m--1290.34431mERGumani, Jharkhand
37BHWBarharwa Junction (3)X  18:53+1:5618:58+2:005m11297.75336mERBarharwa, Jharkhand
38BKLEBakudi (3)  19:07+2:0319:08+2:041m--1305.65765mERBakudi, Jharkhand
39TPHTinpahar Junction (3)  19:17+2:1119:19+2:202m11314.28145mERBamangawan, Jharkhand
40KXEKalian Chak  19:24+2:2819:25+2:401m--1320.96545mERKalian Chak, Jharkhand
41TLJTaljhariX  19:30+2:4219:31+2:461m--1326.31338mERTaljhari, Jharkhand
42MJPMaharajpur (2)X  20:25+2:1720:32+2:247m--1338.24434mERMoharajpur, Jharkhand
43SLJSakrigali Junction (3)X  20:40+2:2920:46+2:336m--1344.13045mERSakrigali, Jharkhand
44SBGSahibganj Junction (3)X  21:02+2:1821:12+2:2710m21352.13538mERSahibganj, Jharkhand
45MZCMirza Cheuki (3)  21:38+2:3521:40+2:402m11367.23638mERBihar, Bihar
46PPTPirpainti (2)X  21:54+2:3922:02+2:428m--1375.73653mERBhagalpur, Bihar
47SVRPShivanarayanpur (2)X  22:17+2:3922:18+2:441m--1384.63847mERShivanarayanpur, Bihar
48CLGKahalgaon (2)O  22:36+2:4622:57+2:3521m21396.03744mERBhagalpur, Bihar
49EKCEkchari (1)  23:04+2:3623:05+2:381m11400.46937mERNational Highway 80, Bihar
50GGAGhoga (2)  23:10+2:4223:15+2:435m--1406.15842mERGhoga, Bihar
51LMMLailakh Mamalkha (2)  23:21+2:4723:22+2:501m--1411.94036mERLailakh Mamlkha, Bihar
52SBOSabaur (3)  23:32+2:5123:34+2:522m--1418.54542mERSabour, Bihar
53BGPBhagalpur Junction (6)X  23:44+2:0723:59+2:0615m--1426.12649mERBhagalpur, Bihar
54NATNathnagar (2)  00:10+2:5400:11+2:561m--2430.89948mERBhagalpur, Bihar
55AKNAkbarnagar (3)  00:19+2:5900:21+2:592m--2441.05039mERTilakpur, Bihar
56SGGSultanGanj (3)  00:33+2:5300:37+2:574m--2451.06042mERSultanganj, Bihar
57BUPBariarpur (3)  00:55+3:0800:57+3:112m--2469.01642mERMunger, Bihar
58JMPJamalpur Junction (4)X  01:38+2:1401:48+2:2010m--2480.14359mERJamalpur 06344-243101, Bihar
59DRTPDasharathpur (2)  01:57+3:0501:59+3:052m--2486.56548mERDharhara, Bihar
60DRHDharhara (2)  02:04+3:0702:06+3:072m--2491.96055mERDharhara, Bihar
61MSDNMasudan (2)  02:12+3:0702:13+3:071m--2497.94845mERMasudan, Bihar
62AHAAbhaipur (2)  02:18+3:0702:19+3:091m--2501.910952mERAbhaipur, Bihar
63KJHKajra (2)X  02:23+3:1002:25+3:102m--2509.22550mERLakhisarai District, Bihar
64DNREDhanauri  02:48+3:0102:50+3:182m--2518.91848mERNational Highway 80, Bihar
65KIULKiul Junction (5)O  03:10+2:4803:38+2:4328m--2524.91053mECRDist. Lakhisarai, Bihar
66LKRLuckeesarai Junction (2)X  03:46+3:2503:48+3:262m--2526.35652mECRLakhisarai, Bihar
67MKBMankathaX  03:54+3:2503:55+3:331m--2531.93847mECRNational Highway 80, Bihar
68BRYABarhiya (3)XO  04:10+3:3704:12+3:402m--2541.3747mECRBarahiya, Bihar
69RDUMRampur Dumra (3)O  05:02+3:0205:04+3:012m--2546.91046mECRNational Highway 80, Bihar
70HTZHathidah Junction (2)O  05:27+2:4905:29+2:492m22550.72050mECRMusahari, Bihar
71MKAMokama Junction (4)X  05:54+2:3105:56+2:412m--2559.11148mECRPatna, Bihar
72MORMor  06:34+2:1206:36+2:112m--2566.32846mECRMor, Bihar
73PHKPunarakh  06:54+2:0806:55+2:111m--2574.64851mECRPunarakh, Bihar
74BARHBarh (3)X  07:08+2:1207:10+2:192m--2585.04249mECRBarh, Bihar
75ATLAthmal Gola (2)  07:23+2:1807:25+2:192m--2594.13652mECRPatna, Bihar
76BKPBakhtiyarpur Junction (5)O  07:40+2:1808:05+2:3425m--2603.26451mECRPatna, Bihar
77HRTHarnaut (3)  08:15+2:5608:16+3:001m--2613.94449mECRHarnaut, Bihar
78WENAWena (2)  08:23+3:0908:24+3:191m--2619.03147mECRWena, Bihar
79BEHSBihar Sharif (2)  08:51+3:2808:52+3:451m--2633.03456mECR06112-222306, Bihar
80NLDNalanda (2)X  09:14+3:1509:15+3:231m--2645.5763mECRNational Highway 82, Bihar
81RGD•Rajgir (3)•  10:55+2:13---2656.8-71mECRRajgir, Bihar
Scroll to Top
Scroll to Bottom